sensor_id;sensor_type;location;lat;lon;timestamp;P1;durP1;ratioP1;P2;durP2;ratioP2
52031;SDS011;38044;45.148;39.604;2022-08-21T00:01:50;94.32;;;11.60;;
52031;SDS011;38044;45.148;39.604;2022-08-21T00:04:17;81.82;;;11.45;;
52031;SDS011;38044;45.148;39.604;2022-08-21T00:06:44;102.93;;;10.98;;
52031;SDS011;38044;45.148;39.604;2022-08-21T00:09:14;94.05;;;12.10;;
52031;SDS011;38044;45.148;39.604;2022-08-21T00:11:41;85.13;;;11.98;;
52031;SDS011;38044;45.148;39.604;2022-08-21T00:14:09;101.32;;;12.27;;
52031;SDS011;38044;45.148;39.604;2022-08-21T00:16:36;95.65;;;11.93;;
52031;SDS011;38044;45.148;39.604;2022-08-21T00:19:03;108.88;;;12.00;;
52031;SDS011;38044;45.148;39.604;2022-08-21T00:21:33;94.72;;;11.60;;
52031;SDS011;38044;45.148;39.604;2022-08-21T00:24:01;100.85;;;11.75;;
52031;SDS011;38044;45.148;39.604;2022-08-21T00:26:27;100.00;;;11.60;;
52031;SDS011;38044;45.148;39.604;2022-08-21T00:28:54;104.25;;;11.88;;
52031;SDS011;38044;45.148;39.604;2022-08-21T00:31:20;96.43;;;12.68;;
52031;SDS011;38044;45.148;39.604;2022-08-21T00:33:46;97.30;;;12.73;;
52031;SDS011;38044;45.148;39.604;2022-08-21T00:36:14;85.20;;;12.25;;
52031;SDS011;38044;45.148;39.604;2022-08-21T00:38:40;88.90;;;11.18;;
52031;SDS011;38044;45.148;39.604;2022-08-21T00:41:07;102.38;;;12.20;;
52031;SDS011;38044;45.148;39.604;2022-08-21T00:43:35;92.68;;;11.73;;
52031;SDS011;38044;45.148;39.604;2022-08-21T00:46:04;86.40;;;11.77;;
52031;SDS011;38044;45.148;39.604;2022-08-21T00:48:31;98.82;;;11.15;;
52031;SDS011;38044;45.148;39.604;2022-08-21T00:51:08;93.22;;;11.50;;
52031;SDS011;38044;45.148;39.604;2022-08-21T00:53:40;103.00;;;12.13;;
52031;SDS011;38044;45.148;39.604;2022-08-21T00:56:09;103.00;;;12.30;;
52031;SDS011;38044;45.148;39.604;2022-08-21T00:58:39;83.05;;;10.95;;
52031;SDS011;38044;45.148;39.604;2022-08-21T01:01:09;108.32;;;12.75;;
52031;SDS011;38044;45.148;39.604;2022-08-21T01:03:35;92.80;;;11.88;;
52031;SDS011;38044;45.148;39.604;2022-08-21T01:06:03;98.35;;;12.43;;
52031;SDS011;38044;45.148;39.604;2022-08-21T01:08:34;101.68;;;12.45;;
52031;SDS011;38044;45.148;39.604;2022-08-21T01:11:02;92.07;;;11.35;;
52031;SDS011;38044;45.148;39.604;2022-08-21T01:13:31;96.68;;;10.93;;
52031;SDS011;38044;45.148;39.604;2022-08-21T01:16:02;95.60;;;11.68;;
52031;SDS011;38044;45.148;39.604;2022-08-21T01:18:33;83.95;;;11.55;;
52031;SDS011;38044;45.148;39.604;2022-08-21T01:23:33;97.53;;;11.48;;
52031;SDS011;38044;45.148;39.604;2022-08-21T01:26:02;96.65;;;10.73;;
52031;SDS011;38044;45.148;39.604;2022-08-21T01:28:30;88.15;;;10.23;;
52031;SDS011;38044;45.148;39.604;2022-08-21T01:31:01;103.53;;;12.13;;
52031;SDS011;38044;45.148;39.604;2022-08-21T01:33:30;90.28;;;11.23;;
52031;SDS011;38044;45.148;39.604;2022-08-21T01:35:57;64.72;;;9.40;;
52031;SDS011;38044;45.148;39.604;2022-08-21T01:38:26;80.30;;;8.98;;
52031;SDS011;38044;45.148;39.604;2022-08-21T01:40:52;74.70;;;9.98;;
52031;SDS011;38044;45.148;39.604;2022-08-21T01:43:19;82.10;;;10.25;;
52031;SDS011;38044;45.148;39.604;2022-08-21T01:45:45;79.60;;;9.57;;
52031;SDS011;38044;45.148;39.604;2022-08-21T01:48:12;70.53;;;10.13;;
52031;SDS011;38044;45.148;39.604;2022-08-21T01:50:39;71.68;;;9.32;;
52031;SDS011;38044;45.148;39.604;2022-08-21T01:53:06;78.97;;;10.23;;
52031;SDS011;38044;45.148;39.604;2022-08-21T01:55:33;77.30;;;9.68;;
52031;SDS011;38044;45.148;39.604;2022-08-21T01:57:59;64.25;;;7.97;;
52031;SDS011;38044;45.148;39.604;2022-08-21T02:00:26;69.18;;;8.65;;
52031;SDS011;38044;45.148;39.604;2022-08-21T02:02:54;73.82;;;9.48;;
52031;SDS011;38044;45.148;39.604;2022-08-21T02:05:22;82.07;;;9.27;;
52031;SDS011;38044;45.148;39.604;2022-08-21T02:07:52;68.97;;;9.80;;
52031;SDS011;38044;45.148;39.604;2022-08-21T02:10:22;57.50;;;8.60;;
52031;SDS011;38044;45.148;39.604;2022-08-21T02:12:53;65.30;;;8.93;;
52031;SDS011;38044;45.148;39.604;2022-08-21T02:15:22;56.08;;;7.95;;
52031;SDS011;38044;45.148;39.604;2022-08-21T02:17:50;60.75;;;6.90;;
52031;SDS011;38044;45.148;39.604;2022-08-21T02:20:23;53.90;;;7.22;;
52031;SDS011;38044;45.148;39.604;2022-08-21T02:22:55;62.03;;;7.63;;
52031;SDS011;38044;45.148;39.604;2022-08-21T02:25:23;62.72;;;8.27;;
52031;SDS011;38044;45.148;39.604;2022-08-21T02:27:51;58.97;;;7.95;;
52031;SDS011;38044;45.148;39.604;2022-08-21T02:30:26;65.28;;;8.52;;
52031;SDS011;38044;45.148;39.604;2022-08-21T02:32:55;69.22;;;8.35;;
52031;SDS011;38044;45.148;39.604;2022-08-21T02:35:22;51.50;;;7.10;;
52031;SDS011;38044;45.148;39.604;2022-08-21T02:37:54;59.45;;;8.23;;
52031;SDS011;38044;45.148;39.604;2022-08-21T02:40:27;57.67;;;8.65;;
52031;SDS011;38044;45.148;39.604;2022-08-21T02:42:58;66.55;;;7.68;;
52031;SDS011;38044;45.148;39.604;2022-08-21T02:45:25;57.58;;;8.30;;
52031;SDS011;38044;45.148;39.604;2022-08-21T02:47:57;40.65;;;6.95;;
52031;SDS011;38044;45.148;39.604;2022-08-21T02:50:28;53.85;;;6.97;;
52031;SDS011;38044;45.148;39.604;2022-08-21T02:53:05;55.42;;;7.32;;
52031;SDS011;38044;45.148;39.604;2022-08-21T02:55:34;47.58;;;7.60;;
52031;SDS011;38044;45.148;39.604;2022-08-21T02:58:02;44.53;;;6.55;;
52031;SDS011;38044;45.148;39.604;2022-08-21T03:00:32;51.95;;;7.07;;
52031;SDS011;38044;45.148;39.604;2022-08-21T03:02:59;55.72;;;7.38;;
52031;SDS011;38044;45.148;39.604;2022-08-21T03:05:26;44.75;;;6.85;;
52031;SDS011;38044;45.148;39.604;2022-08-21T03:07:56;50.95;;;6.40;;
52031;SDS011;38044;45.148;39.604;2022-08-21T03:10:23;33.30;;;6.05;;
52031;SDS011;38044;45.148;39.604;2022-08-21T03:12:50;48.00;;;6.38;;
52031;SDS011;38044;45.148;39.604;2022-08-21T03:15:18;53.38;;;6.72;;
52031;SDS011;38044;45.148;39.604;2022-08-21T03:17:46;42.08;;;6.85;;
52031;SDS011;38044;45.148;39.604;2022-08-21T03:20:14;41.63;;;6.20;;
52031;SDS011;38044;45.148;39.604;2022-08-21T03:22:42;40.08;;;6.07;;
52031;SDS011;38044;45.148;39.604;2022-08-21T03:25:08;38.58;;;5.75;;
52031;SDS011;38044;45.148;39.604;2022-08-21T03:27:37;49.50;;;6.50;;
52031;SDS011;38044;45.148;39.604;2022-08-21T03:30:04;36.83;;;5.95;;
52031;SDS011;38044;45.148;39.604;2022-08-21T03:32:32;40.40;;;5.75;;
52031;SDS011;38044;45.148;39.604;2022-08-21T03:34:58;48.83;;;6.85;;
52031;SDS011;38044;45.148;39.604;2022-08-21T03:37:25;40.35;;;5.45;;
52031;SDS011;38044;45.148;39.604;2022-08-21T03:39:51;42.00;;;6.47;;
52031;SDS011;38044;45.148;39.604;2022-08-21T03:42:17;51.25;;;6.90;;
52031;SDS011;38044;45.148;39.604;2022-08-21T03:44:45;43.83;;;6.82;;
52031;SDS011;38044;45.148;39.604;2022-08-21T03:47:11;39.88;;;6.32;;
52031;SDS011;38044;45.148;39.604;2022-08-21T03:49:37;45.63;;;6.88;;
52031;SDS011;38044;45.148;39.604;2022-08-21T03:52:03;43.17;;;6.68;;
52031;SDS011;38044;45.148;39.604;2022-08-21T03:54:33;49.10;;;6.85;;
52031;SDS011;38044;45.148;39.604;2022-08-21T03:57:00;57.80;;;7.38;;
52031;SDS011;38044;45.148;39.604;2022-08-21T03:59:27;50.55;;;7.32;;
52031;SDS011;38044;45.148;39.604;2022-08-21T04:01:54;45.65;;;6.85;;
52031;SDS011;38044;45.148;39.604;2022-08-21T04:04:23;55.00;;;6.07;;
52031;SDS011;38044;45.148;39.604;2022-08-21T04:06:51;50.17;;;6.30;;
52031;SDS011;38044;45.148;39.604;2022-08-21T04:09:20;53.72;;;6.00;;
52031;SDS011;38044;45.148;39.604;2022-08-21T04:11:48;53.67;;;7.00;;
52031;SDS011;38044;45.148;39.604;2022-08-21T04:14:16;44.35;;;6.57;;
52031;SDS011;38044;45.148;39.604;2022-08-21T04:16:42;54.80;;;6.13;;
52031;SDS011;38044;45.148;39.604;2022-08-21T04:19:11;43.92;;;5.95;;
52031;SDS011;38044;45.148;39.604;2022-08-21T04:21:41;39.72;;;5.68;;
52031;SDS011;38044;45.148;39.604;2022-08-21T04:24:09;43.20;;;6.32;;
52031;SDS011;38044;45.148;39.604;2022-08-21T04:26:37;33.78;;;5.15;;
52031;SDS011;38044;45.148;39.604;2022-08-21T04:29:06;37.58;;;6.60;;
52031;SDS011;38044;45.148;39.604;2022-08-21T04:31:33;54.88;;;6.72;;
52031;SDS011;38044;45.148;39.604;2022-08-21T04:34:02;44.10;;;5.95;;
52031;SDS011;38044;45.148;39.604;2022-08-21T04:36:30;42.33;;;6.60;;
52031;SDS011;38044;45.148;39.604;2022-08-21T04:38:56;49.38;;;6.30;;
52031;SDS011;38044;45.148;39.604;2022-08-21T04:41:22;48.08;;;6.13;;
52031;SDS011;38044;45.148;39.604;2022-08-21T04:43:48;49.72;;;6.88;;
52031;SDS011;38044;45.148;39.604;2022-08-21T04:46:15;49.63;;;6.57;;
52031;SDS011;38044;45.148;39.604;2022-08-21T04:48:41;45.03;;;6.70;;
52031;SDS011;38044;45.148;39.604;2022-08-21T04:51:15;42.05;;;6.03;;
52031;SDS011;38044;45.148;39.604;2022-08-21T04:53:52;48.13;;;6.25;;
52031;SDS011;38044;45.148;39.604;2022-08-21T04:56:27;42.13;;;5.82;;
52031;SDS011;38044;45.148;39.604;2022-08-21T04:59:00;34.75;;;5.65;;
52031;SDS011;38044;45.148;39.604;2022-08-21T05:01:30;43.50;;;5.72;;
52031;SDS011;38044;45.148;39.604;2022-08-21T05:04:00;38.63;;;6.03;;
52031;SDS011;38044;45.148;39.604;2022-08-21T05:06:30;30.85;;;5.30;;
52031;SDS011;38044;45.148;39.604;2022-08-21T05:08:59;33.88;;;4.90;;
52031;SDS011;38044;45.148;39.604;2022-08-21T05:11:26;35.80;;;5.55;;
52031;SDS011;38044;45.148;39.604;2022-08-21T05:13:53;35.05;;;5.15;;
52031;SDS011;38044;45.148;39.604;2022-08-21T05:16:19;47.50;;;5.50;;
52031;SDS011;38044;45.148;39.604;2022-08-21T05:18:44;37.83;;;5.20;;
52031;SDS011;38044;45.148;39.604;2022-08-21T05:21:10;35.60;;;5.80;;
52031;SDS011;38044;45.148;39.604;2022-08-21T05:23:36;40.72;;;5.88;;
52031;SDS011;38044;45.148;39.604;2022-08-21T05:26:02;44.17;;;5.78;;
52031;SDS011;38044;45.148;39.604;2022-08-21T05:28:29;38.65;;;5.68;;
52031;SDS011;38044;45.148;39.604;2022-08-21T05:30:56;36.35;;;5.05;;
52031;SDS011;38044;45.148;39.604;2022-08-21T05:33:22;39.03;;;6.00;;
52031;SDS011;38044;45.148;39.604;2022-08-21T05:35:52;45.75;;;5.90;;
52031;SDS011;38044;45.148;39.604;2022-08-21T05:38:23;27.98;;;5.00;;
52031;SDS011;38044;45.148;39.604;2022-08-21T05:40:50;37.38;;;4.95;;
52031;SDS011;38044;45.148;39.604;2022-08-21T05:43:18;40.85;;;5.72;;
52031;SDS011;38044;45.148;39.604;2022-08-21T05:45:44;35.75;;;4.93;;
52031;SDS011;38044;45.148;39.604;2022-08-21T05:48:14;46.08;;;5.55;;
52031;SDS011;38044;45.148;39.604;2022-08-21T05:50:44;36.03;;;5.15;;
52031;SDS011;38044;45.148;39.604;2022-08-21T05:53:12;33.45;;;5.10;;
52031;SDS011;38044;45.148;39.604;2022-08-21T05:55:39;35.10;;;6.13;;
52031;SDS011;38044;45.148;39.604;2022-08-21T05:58:06;38.10;;;5.40;;
52031;SDS011;38044;45.148;39.604;2022-08-21T06:00:32;40.53;;;5.65;;
52031;SDS011;38044;45.148;39.604;2022-08-21T06:02:59;34.33;;;4.93;;
52031;SDS011;38044;45.148;39.604;2022-08-21T06:05:25;40.80;;;5.13;;
52031;SDS011;38044;45.148;39.604;2022-08-21T06:07:51;28.95;;;4.78;;
52031;SDS011;38044;45.148;39.604;2022-08-21T06:10:17;30.48;;;4.90;;
52031;SDS011;38044;45.148;39.604;2022-08-21T06:12:44;30.13;;;4.93;;
52031;SDS011;38044;45.148;39.604;2022-08-21T06:15:10;33.20;;;5.40;;
52031;SDS011;38044;45.148;39.604;2022-08-21T06:17:36;37.45;;;5.07;;
52031;SDS011;38044;45.148;39.604;2022-08-21T06:20:02;31.92;;;4.88;;
52031;SDS011;38044;45.148;39.604;2022-08-21T06:22:29;37.83;;;5.60;;
52031;SDS011;38044;45.148;39.604;2022-08-21T06:24:56;35.92;;;5.25;;
52031;SDS011;38044;45.148;39.604;2022-08-21T06:27:22;32.13;;;6.05;;
52031;SDS011;38044;45.148;39.604;2022-08-21T06:29:48;31.42;;;5.15;;
52031;SDS011;38044;45.148;39.604;2022-08-21T06:32:14;34.38;;;4.40;;
52031;SDS011;38044;45.148;39.604;2022-08-21T06:34:41;36.42;;;5.70;;
52031;SDS011;38044;45.148;39.604;2022-08-21T06:37:07;41.63;;;6.88;;
52031;SDS011;38044;45.148;39.604;2022-08-21T06:39:33;30.10;;;4.65;;
52031;SDS011;38044;45.148;39.604;2022-08-21T06:41:59;30.92;;;5.07;;
52031;SDS011;38044;45.148;39.604;2022-08-21T06:44:25;36.75;;;6.28;;
52031;SDS011;38044;45.148;39.604;2022-08-21T06:46:51;39.83;;;6.03;;
52031;SDS011;38044;45.148;39.604;2022-08-21T06:49:17;42.83;;;6.47;;
52031;SDS011;38044;45.148;39.604;2022-08-21T06:51:43;35.13;;;5.80;;
52031;SDS011;38044;45.148;39.604;2022-08-21T06:54:09;33.75;;;5.70;;
52031;SDS011;38044;45.148;39.604;2022-08-21T06:56:35;42.00;;;6.80;;
52031;SDS011;38044;45.148;39.604;2022-08-21T06:59:03;36.03;;;6.10;;
52031;SDS011;38044;45.148;39.604;2022-08-21T07:01:30;37.55;;;6.00;;
52031;SDS011;38044;45.148;39.604;2022-08-21T07:04:01;25.77;;;5.30;;
52031;SDS011;38044;45.148;39.604;2022-08-21T07:06:27;32.03;;;5.28;;
52031;SDS011;38044;45.148;39.604;2022-08-21T07:08:53;35.15;;;5.72;;
52031;SDS011;38044;45.148;39.604;2022-08-21T07:11:20;32.90;;;5.70;;
52031;SDS011;38044;45.148;39.604;2022-08-21T07:13:48;32.50;;;5.30;;
52031;SDS011;38044;45.148;39.604;2022-08-21T07:16:17;34.03;;;5.50;;
52031;SDS011;38044;45.148;39.604;2022-08-21T07:18:43;32.90;;;5.75;;
52031;SDS011;38044;45.148;39.604;2022-08-21T07:21:10;37.05;;;5.15;;
52031;SDS011;38044;45.148;39.604;2022-08-21T07:23:39;38.50;;;6.07;;
52031;SDS011;38044;45.148;39.604;2022-08-21T07:26:09;32.83;;;6.05;;
52031;SDS011;38044;45.148;39.604;2022-08-21T07:28:36;26.60;;;5.53;;
52031;SDS011;38044;45.148;39.604;2022-08-21T07:31:02;30.02;;;6.10;;
52031;SDS011;38044;45.148;39.604;2022-08-21T07:33:29;30.58;;;6.13;;
52031;SDS011;38044;45.148;39.604;2022-08-21T07:35:57;31.30;;;6.40;;
52031;SDS011;38044;45.148;39.604;2022-08-21T07:38:24;27.23;;;5.93;;
52031;SDS011;38044;45.148;39.604;2022-08-21T07:40:51;43.17;;;6.43;;
52031;SDS011;38044;45.148;39.604;2022-08-21T07:43:19;37.95;;;6.53;;
52031;SDS011;38044;45.148;39.604;2022-08-21T07:45:48;34.17;;;7.38;;
52031;SDS011;38044;45.148;39.604;2022-08-21T07:48:15;33.45;;;6.88;;
52031;SDS011;38044;45.148;39.604;2022-08-21T07:50:42;35.03;;;6.90;;
52031;SDS011;38044;45.148;39.604;2022-08-21T07:53:08;31.63;;;6.15;;
52031;SDS011;38044;45.148;39.604;2022-08-21T07:55:34;31.33;;;6.03;;
52031;SDS011;38044;45.148;39.604;2022-08-21T07:58:01;24.65;;;4.57;;
52031;SDS011;38044;45.148;39.604;2022-08-21T08:00:27;36.15;;;5.15;;
52031;SDS011;38044;45.148;39.604;2022-08-21T08:02:56;34.35;;;6.00;;
52031;SDS011;38044;45.148;39.604;2022-08-21T08:05:25;30.00;;;5.80;;
52031;SDS011;38044;45.148;39.604;2022-08-21T08:07:54;37.95;;;5.65;;
52031;SDS011;38044;45.148;39.604;2022-08-21T08:10:23;29.33;;;5.28;;
52031;SDS011;38044;45.148;39.604;2022-08-21T08:12:51;36.63;;;5.82;;
52031;SDS011;38044;45.148;39.604;2022-08-21T08:15:20;28.83;;;5.20;;
52031;SDS011;38044;45.148;39.604;2022-08-21T08:17:49;34.28;;;5.22;;
52031;SDS011;38044;45.148;39.604;2022-08-21T08:20:22;28.27;;;6.15;;
52031;SDS011;38044;45.148;39.604;2022-08-21T08:22:55;34.45;;;4.70;;
52031;SDS011;38044;45.148;39.604;2022-08-21T08:25:23;29.85;;;5.18;;
52031;SDS011;38044;45.148;39.604;2022-08-21T08:27:52;31.63;;;5.82;;
52031;SDS011;38044;45.148;39.604;2022-08-21T08:30:19;33.60;;;5.00;;
52031;SDS011;38044;45.148;39.604;2022-08-21T08:32:49;31.92;;;5.22;;
52031;SDS011;38044;45.148;39.604;2022-08-21T08:35:17;32.17;;;5.63;;
52031;SDS011;38044;45.148;39.604;2022-08-21T08:37:43;23.60;;;4.60;;
52031;SDS011;38044;45.148;39.604;2022-08-21T08:40:18;27.33;;;4.40;;
52031;SDS011;38044;45.148;39.604;2022-08-21T08:43:07;30.42;;;5.53;;
52031;SDS011;38044;45.148;39.604;2022-08-21T08:45:34;27.52;;;4.88;;
52031;SDS011;38044;45.148;39.604;2022-08-21T08:48:05;34.65;;;5.10;;
52031;SDS011;38044;45.148;39.604;2022-08-21T08:50:48;22.13;;;3.92;;
52031;SDS011;38044;45.148;39.604;2022-08-21T08:53:44;34.08;;;4.55;;
52031;SDS011;38044;45.148;39.604;2022-08-21T08:56:15;26.75;;;5.35;;
52031;SDS011;38044;45.148;39.604;2022-08-21T08:58:48;25.85;;;5.45;;
52031;SDS011;38044;45.148;39.604;2022-08-21T09:01:19;26.33;;;5.30;;
52031;SDS011;38044;45.148;39.604;2022-08-21T09:03:47;24.83;;;4.60;;
52031;SDS011;38044;45.148;39.604;2022-08-21T09:09:15;24.60;;;4.90;;
52031;SDS011;38044;45.148;39.604;2022-08-21T09:12:18;22.00;;;4.55;;
52031;SDS011;38044;45.148;39.604;2022-08-21T09:18:10;32.28;;;5.20;;
52031;SDS011;38044;45.148;39.604;2022-08-21T09:20:56;31.58;;;5.32;;
52031;SDS011;38044;45.148;39.604;2022-08-21T09:26:54;31.50;;;4.97;;
52031;SDS011;38044;45.148;39.604;2022-08-21T09:29:42;28.75;;;4.78;;
52031;SDS011;38044;45.148;39.604;2022-08-21T09:32:15;33.65;;;4.80;;
52031;SDS011;38044;45.148;39.604;2022-08-21T09:34:56;32.05;;;5.07;;
52031;SDS011;38044;45.148;39.604;2022-08-21T09:37:23;26.00;;;4.07;;
52031;SDS011;38044;45.148;39.604;2022-08-21T09:39:49;28.83;;;5.07;;
52031;SDS011;38044;45.148;39.604;2022-08-21T09:42:22;22.98;;;4.93;;
52031;SDS011;38044;45.148;39.604;2022-08-21T09:45:06;29.98;;;5.07;;
52031;SDS011;38044;45.148;39.604;2022-08-21T09:47:35;23.85;;;4.38;;
52031;SDS011;38044;45.148;39.604;2022-08-21T09:50:13;27.95;;;5.00;;
52031;SDS011;38044;45.148;39.604;2022-08-21T09:52:47;25.65;;;4.35;;
52031;SDS011;38044;45.148;39.604;2022-08-21T09:55:27;27.98;;;5.15;;
52031;SDS011;38044;45.148;39.604;2022-08-21T09:58:16;29.00;;;5.50;;
52031;SDS011;38044;45.148;39.604;2022-08-21T10:00:43;25.50;;;4.50;;
52031;SDS011;38044;45.148;39.604;2022-08-21T10:03:11;33.08;;;4.63;;
52031;SDS011;38044;45.148;39.604;2022-08-21T10:05:40;27.77;;;4.43;;
52031;SDS011;38044;45.148;39.604;2022-08-21T10:08:26;26.75;;;4.63;;
52031;SDS011;38044;45.148;39.604;2022-08-21T10:10:57;26.20;;;4.22;;
52031;SDS011;38044;45.148;39.604;2022-08-21T10:16:35;25.65;;;4.35;;
52031;SDS011;38044;45.148;39.604;2022-08-21T10:22:17;24.90;;;4.10;;
52031;SDS011;38044;45.148;39.604;2022-08-21T10:30:40;19.48;;;4.07;;
52031;SDS011;38044;45.148;39.604;2022-08-21T10:35:43;31.23;;;4.47;;
52031;SDS011;38044;45.148;39.604;2022-08-21T10:38:31;28.70;;;4.97;;
52031;SDS011;38044;45.148;39.604;2022-08-21T10:41:28;28.70;;;4.95;;
52031;SDS011;38044;45.148;39.604;2022-08-21T10:47:08;36.65;;;5.45;;
52031;SDS011;38044;45.148;39.604;2022-08-21T10:55:04;23.47;;;4.57;;
52031;SDS011;38044;45.148;39.604;2022-08-21T10:57:49;29.25;;;4.28;;
52031;SDS011;38044;45.148;39.604;2022-08-21T11:00:22;30.90;;;5.78;;
52031;SDS011;38044;45.148;39.604;2022-08-21T11:03:02;34.65;;;4.72;;
52031;SDS011;38044;45.148;39.604;2022-08-21T11:05:52;27.48;;;4.32;;
52031;SDS011;38044;45.148;39.604;2022-08-21T11:08:22;23.83;;;4.32;;
52031;SDS011;38044;45.148;39.604;2022-08-21T11:10:55;25.63;;;4.65;;
52031;SDS011;38044;45.148;39.604;2022-08-21T11:18:55;30.15;;;4.78;;
52031;SDS011;38044;45.148;39.604;2022-08-21T11:26:53;27.63;;;5.28;;
52031;SDS011;38044;45.148;39.604;2022-08-21T11:29:33;23.17;;;4.50;;
52031;SDS011;38044;45.148;39.604;2022-08-21T11:32:11;27.85;;;4.72;;
52031;SDS011;38044;45.148;39.604;2022-08-21T11:34:49;26.15;;;5.20;;
52031;SDS011;38044;45.148;39.604;2022-08-21T11:43:12;29.17;;;4.37;;
52031;SDS011;38044;45.148;39.604;2022-08-21T11:46:08;37.80;;;4.50;;
52031;SDS011;38044;45.148;39.604;2022-08-21T11:51:43;31.38;;;6.03;;
52031;SDS011;38044;45.148;39.604;2022-08-21T11:54:22;25.95;;;5.38;;
52031;SDS011;38044;45.148;39.604;2022-08-21T11:57:05;26.73;;;4.53;;
52031;SDS011;38044;45.148;39.604;2022-08-21T12:02:16;25.75;;;4.72;;
52031;SDS011;38044;45.148;39.604;2022-08-21T12:04:51;26.83;;;4.25;;
52031;SDS011;38044;45.148;39.604;2022-08-21T12:09:55;25.50;;;4.38;;
52031;SDS011;38044;45.148;39.604;2022-08-21T12:12:24;32.53;;;5.57;;
52031;SDS011;38044;45.148;39.604;2022-08-21T12:14:51;29.55;;;;;
52031;SDS011;38044;45.148;39.604;2022-08-21T12:17:40;25.80;;;4.57;;
52031;SDS011;38044;45.148;39.604;2022-08-21T12:22:52;26.08;;;4.70;;
52031;SDS011;38044;45.148;39.604;2022-08-21T12:25:35;21.65;;;4.43;;
52031;SDS011;38044;45.148;39.604;2022-08-21T12:28:22;30.48;;;5.10;;
52031;SDS011;38044;45.148;39.604;2022-08-21T12:30:49;27.38;;;3.92;;
52031;SDS011;38044;45.148;39.604;2022-08-21T12:36:06;26.77;;;4.57;;
52031;SDS011;38044;45.148;39.604;2022-08-21T12:38:51;25.85;;;4.30;;
52031;SDS011;38044;45.148;39.604;2022-08-21T12:41:34;28.35;;;5.07;;
52031;SDS011;38044;45.148;39.604;2022-08-21T12:44:16;23.05;;;4.47;;
52031;SDS011;38044;45.148;39.604;2022-08-21T12:46:54;25.60;;;4.68;;
52031;SDS011;38044;45.148;39.604;2022-08-21T12:49:44;38.53;;;8.82;;
52031;SDS011;38044;45.148;39.604;2022-08-21T12:52:24;32.13;;;6.07;;
52031;SDS011;38044;45.148;39.604;2022-08-21T12:55:05;30.15;;;5.40;;
52031;SDS011;38044;45.148;39.604;2022-08-21T12:57:36;32.47;;;5.75;;
52031;SDS011;38044;45.148;39.604;2022-08-21T13:00:06;28.67;;;5.72;;
52031;SDS011;38044;45.148;39.604;2022-08-21T13:02:43;28.73;;;5.07;;
52031;SDS011;38044;45.148;39.604;2022-08-21T13:05:14;25.63;;;4.95;;
52031;SDS011;38044;45.148;39.604;2022-08-21T13:07:48;31.13;;;5.35;;
52031;SDS011;38044;45.148;39.604;2022-08-21T13:10:19;31.45;;;4.75;;
52031;SDS011;38044;45.148;39.604;2022-08-21T13:12:49;24.30;;;4.18;;
52031;SDS011;38044;45.148;39.604;2022-08-21T13:15:21;25.13;;;4.32;;
52031;SDS011;38044;45.148;39.604;2022-08-21T13:17:50;25.67;;;4.47;;
52031;SDS011;38044;45.148;39.604;2022-08-21T13:20:21;24.10;;;4.88;;
52031;SDS011;38044;45.148;39.604;2022-08-21T13:22:50;32.05;;;4.85;;
52031;SDS011;38044;45.148;39.604;2022-08-21T13:25:18;32.33;;;4.68;;
52031;SDS011;38044;45.148;39.604;2022-08-21T13:27:57;22.88;;;4.20;;
52031;SDS011;38044;45.148;39.604;2022-08-21T13:30:26;31.80;;;5.07;;
52031;SDS011;38044;45.148;39.604;2022-08-21T13:32:57;26.05;;;4.40;;
52031;SDS011;38044;45.148;39.604;2022-08-21T13:38:17;20.33;;;4.50;;
52031;SDS011;38044;45.148;39.604;2022-08-21T13:41:08;23.88;;;4.30;;
52031;SDS011;38044;45.148;39.604;2022-08-21T13:43:45;27.67;;;5.18;;
52031;SDS011;38044;45.148;39.604;2022-08-21T13:46:15;26.60;;;4.57;;
52031;SDS011;38044;45.148;39.604;2022-08-21T13:48:46;26.98;;;4.55;;
52031;SDS011;38044;45.148;39.604;2022-08-21T13:51:13;26.48;;;4.40;;
52031;SDS011;38044;45.148;39.604;2022-08-21T13:56:20;25.25;;;4.10;;
52031;SDS011;38044;45.148;39.604;2022-08-21T13:58:49;23.05;;;4.63;;
52031;SDS011;38044;45.148;39.604;2022-08-21T14:01:17;30.50;;;4.75;;
52031;SDS011;38044;45.148;39.604;2022-08-21T14:03:51;43.00;;;5.60;;
52031;SDS011;38044;45.148;39.604;2022-08-21T14:06:25;21.38;;;4.85;;
52031;SDS011;38044;45.148;39.604;2022-08-21T14:08:55;25.58;;;5.53;;
52031;SDS011;38044;45.148;39.604;2022-08-21T14:11:26;22.40;;;5.00;;
52031;SDS011;38044;45.148;39.604;2022-08-21T14:14:03;26.70;;;4.85;;
52031;SDS011;38044;45.148;39.604;2022-08-21T14:19:38;30.35;;;4.70;;
52031;SDS011;38044;45.148;39.604;2022-08-21T14:25:25;23.00;;;4.53;;
52031;SDS011;38044;45.148;39.604;2022-08-21T14:28:14;23.83;;;4.28;;
52031;SDS011;38044;45.148;39.604;2022-08-21T14:30:48;27.83;;;4.60;;
52031;SDS011;38044;45.148;39.604;2022-08-21T14:33:23;25.13;;;4.28;;
52031;SDS011;38044;45.148;39.604;2022-08-21T14:35:56;23.67;;;4.35;;
52031;SDS011;38044;45.148;39.604;2022-08-21T14:38:23;23.55;;;4.13;;
52031;SDS011;38044;45.148;39.604;2022-08-21T14:40:52;27.40;;;4.80;;
52031;SDS011;38044;45.148;39.604;2022-08-21T14:43:23;28.73;;;4.72;;
52031;SDS011;38044;45.148;39.604;2022-08-21T14:45:51;35.30;;;4.40;;
52031;SDS011;38044;45.148;39.604;2022-08-21T14:48:17;22.92;;;4.38;;
52031;SDS011;38044;45.148;39.604;2022-08-21T14:50:43;26.88;;;4.90;;
52031;SDS011;38044;45.148;39.604;2022-08-21T14:53:09;26.65;;;4.88;;
52031;SDS011;38044;45.148;39.604;2022-08-21T14:55:35;27.85;;;5.10;;
52031;SDS011;38044;45.148;39.604;2022-08-21T14:58:21;25.65;;;5.43;;
52031;SDS011;38044;45.148;39.604;2022-08-21T15:00:49;28.10;;;5.50;;
52031;SDS011;38044;45.148;39.604;2022-08-21T15:03:18;29.45;;;5.05;;
52031;SDS011;38044;45.148;39.604;2022-08-21T15:05:46;22.55;;;5.03;;
52031;SDS011;38044;45.148;39.604;2022-08-21T15:08:13;25.83;;;4.80;;
52031;SDS011;38044;45.148;39.604;2022-08-21T15:10:39;38.20;;;5.18;;
52031;SDS011;38044;45.148;39.604;2022-08-21T15:13:05;29.63;;;5.90;;
52031;SDS011;38044;45.148;39.604;2022-08-21T15:15:32;21.42;;;5.22;;
52031;SDS011;38044;45.148;39.604;2022-08-21T15:18:03;26.90;;;5.00;;
52031;SDS011;38044;45.148;39.604;2022-08-21T15:20:29;30.48;;;5.50;;
52031;SDS011;38044;45.148;39.604;2022-08-21T15:22:55;25.48;;;5.10;;
52031;SDS011;38044;45.148;39.604;2022-08-21T15:25:21;30.77;;;5.13;;
52031;SDS011;38044;45.148;39.604;2022-08-21T15:27:47;36.65;;;6.22;;
52031;SDS011;38044;45.148;39.604;2022-08-21T15:30:13;20.50;;;5.00;;
52031;SDS011;38044;45.148;39.604;2022-08-21T15:32:40;19.02;;;4.47;;
52031;SDS011;38044;45.148;39.604;2022-08-21T15:35:09;31.00;;;4.55;;
52031;SDS011;38044;45.148;39.604;2022-08-21T15:37:35;22.23;;;4.50;;
52031;SDS011;38044;45.148;39.604;2022-08-21T15:40:01;28.25;;;4.20;;
52031;SDS011;38044;45.148;39.604;2022-08-21T15:42:29;17.20;;;3.92;;
52031;SDS011;38044;45.148;39.604;2022-08-21T15:44:56;23.67;;;4.60;;
52031;SDS011;38044;45.148;39.604;2022-08-21T15:47:28;28.17;;;4.88;;
52031;SDS011;38044;45.148;39.604;2022-08-21T15:52:21;50.22;;;5.90;;
52031;SDS011;38044;45.148;39.604;2022-08-21T15:54:48;23.33;;;4.20;;
52031;SDS011;38044;45.148;39.604;2022-08-21T15:57:16;25.83;;;4.55;;
52031;SDS011;38044;45.148;39.604;2022-08-21T15:59:46;24.33;;;5.13;;